Time;durP1;ratioP1;P1;durP2;ratioP2;P2;SDS_P1;SDS_P2;PMS_P1;PMS_P2;Temp;Humidity;BMP_temperature;BMP_pressure;BME280_temperature;BME280_humidity;BME280_pressure;Samples;Min_cycle;Max_cycle;Signal;HPM_P1;HPM_P2
2023/06/13 00:01:36;;;;;;;5.68;4.95;;;18.00;42.20;;;;;;5073843;28;20031;-71
2023/06/13 00:04:03;;;;;;;5.50;4.80;;;18.00;42.10;;;;;;5073567;28;20542;-71
2023/06/13 00:06:29;;;;;;;6.88;3.92;;;17.90;42.10;;;;;;5073693;28;20036;-71
2023/06/13 00:08:56;;;;;;;3.95;3.58;;;17.80;42.20;;;;;;5073719;28;20020;-70
2023/06/13 00:11:22;;;;;;;6.50;4.57;;;17.80;42.40;;;;;;5073519;28;20473;-71
2023/06/13 00:13:47;;;;;;;5.90;4.55;;;17.70;42.70;;;;;;5072036;28;20029;-71
2023/06/13 00:16:14;;;;;;;5.40;4.53;;;17.70;42.90;;;;;;5073400;28;20024;-71
2023/06/13 00:18:40;;;;;;;6.10;4.82;;;17.60;42.70;;;;;;5073523;28;20020;-72
2023/06/13 00:21:06;;;;;;;4.25;3.85;;;17.60;42.80;;;;;;5073643;28;20055;-74
2023/06/13 00:23:32;;;;;;;8.20;4.53;;;17.50;43.10;;;;;;5073346;28;20057;-70
2023/06/13 00:25:57;;;;;;;6.68;4.72;;;17.50;43.40;;;;;;5073361;28;20028;-72
2023/06/13 00:28:23;;;;;;;4.57;4.00;;;17.40;43.70;;;;;;5073312;28;20036;-70
2023/06/13 00:30:48;;;;;;;6.95;4.57;;;17.30;44.00;;;;;;5073000;28;20017;-70
2023/06/13 00:33:17;;;;;;;8.48;4.40;;;17.30;43.90;;;;;;5072847;28;20028;-71
2023/06/13 00:35:44;;;;;;;5.88;4.32;;;17.30;44.00;;;;;;5073035;28;20052;-70
2023/06/13 00:38:10;;;;;;;7.72;4.90;;;17.20;44.40;;;;;;5073035;28;20127;-71
2023/06/13 00:40:36;;;;;;;8.63;5.40;;;17.10;47.40;;;;;;5072850;28;20473;-70
2023/06/13 00:43:02;;;;;;;6.00;4.43;;;17.30;50.90;;;;;;5072984;28;20040;-71
2023/06/13 00:45:28;;;;;;;7.70;4.97;;;17.50;48.80;;;;;;5072825;28;20020;-71
2023/06/13 00:47:57;;;;;;;5.95;4.60;;;17.60;47.90;;;;;;5072864;28;20032;-71
2023/06/13 00:50:26;;;;;;;7.32;4.50;;;17.80;45.90;;;;;;5073128;28;20035;-71
2023/06/13 00:52:57;;;;;;;7.25;4.70;;;18.00;45.00;;;;;;5072964;28;20020;-71
2023/06/13 00:55:25;;;;;;;6.75;4.60;;;18.10;43.80;;;;;;5073036;28;20041;-71
2023/06/13 00:57:55;;;;;;;7.85;4.13;;;18.20;43.40;;;;;;5072857;28;20013;-71
2023/06/13 01:00:22;;;;;;;7.53;4.30;;;18.30;42.60;;;;;;5072892;28;20020;-71
2023/06/13 01:02:49;;;;;;;4.88;4.13;;;18.30;41.90;;;;;;5072588;28;20518;-71
2023/06/13 01:05:14;;;;;;;6.25;4.40;;;18.30;41.60;;;;;;5072965;28;20067;-71
2023/06/13 01:07:41;;;;;;;4.53;3.85;;;18.30;42.10;;;;;;5072003;28;20064;-71
2023/06/13 01:10:08;;;;;;;4.03;3.63;;;18.30;41.40;;;;;;5072692;28;20020;-71
2023/06/13 01:12:41;;;;;;;6.55;4.07;;;18.30;42.00;;;;;;5073175;28;20464;-70
2023/06/13 01:15:13;;;;;;;5.13;3.85;;;18.30;41.40;;;;;;5073081;28;20086;-71
2023/06/13 01:17:49;;;;;;;6.93;4.43;;;18.40;41.50;;;;;;5076071;28;20024;-71
2023/06/13 01:20:16;;;;;;;6.40;4.00;;;18.40;41.40;;;;;;5076995;28;20095;-71
2023/06/13 01:23:02;;;;;;;5.80;4.47;;;18.30;41.10;;;;;;5076579;28;20119;-71
2023/06/13 01:25:37;;;;;;;6.57;4.55;;;18.30;41.30;;;;;;5076767;28;20029;-73
2023/06/13 01:28:03;;;;;;;5.97;3.90;;;18.20;42.00;;;;;;5076819;28;20566;-71
2023/06/13 01:30:29;;;;;;;4.75;4.35;;;18.20;42.00;;;;;;5076864;28;20024;-71
2023/06/13 01:32:55;;;;;;;4.78;4.28;;;18.20;42.00;;;;;;5076932;28;20381;-71
2023/06/13 01:35:21;;;;;;;5.88;4.28;;;18.20;42.40;;;;;;5080104;28;20028;-71
2023/06/13 01:37:47;;;;;;;5.93;4.18;;;18.20;42.40;;;;;;5077304;28;20101;-71
2023/06/13 01:40:16;;;;;;;5.40;3.83;;;18.20;42.20;;;;;;5076547;28;20098;-73
2023/06/13 01:42:41;;;;;;;10.23;4.70;;;18.10;42.40;;;;;;5076425;28;20066;-72
2023/06/13 01:45:08;;;;;;;5.32;4.45;;;18.10;42.50;;;;;;5076444;28;20021;-71
2023/06/13 01:47:54;;;;;;;5.72;4.50;;;18.00;42.40;;;;;;5076339;28;20397;-70
2023/06/13 01:50:35;;;;;;;4.82;3.78;;;18.00;42.60;;;;;;5076217;28;20021;-70
2023/06/13 01:53:05;;;;;;;7.38;4.07;;;18.00;42.30;;;;;;5076327;28;20021;-71
2023/06/13 01:55:43;;;;;;;5.32;4.13;;;17.90;42.70;;;;;;5076260;28;20052;-71
2023/06/13 01:58:31;;;;;;;5.35;4.00;;;17.80;42.10;;;;;;5076053;28;20103;-70
2023/06/13 02:01:01;;;;;;;5.40;4.00;;;17.60;42.50;;;;;;5076053;28;20047;-70
2023/06/13 02:03:27;;;;;;;5.53;4.18;;;17.50;42.80;;;;;;5076045;28;20056;-70
2023/06/13 02:05:52;;;;;;;5.22;4.32;;;17.40;43.20;;;;;;5075860;28;20017;-70
2023/06/13 02:08:18;;;;;;;7.80;4.57;;;17.20;43.40;;;;;;5076062;28;20074;-70
2023/06/13 02:10:44;;;;;;;5.07;4.30;;;17.10;44.00;;;;;;5075819;28;20020;-70
2023/06/13 02:13:10;;;;;;;7.90;4.45;;;17.10;44.20;;;;;;5075878;28;20477;-73
2023/06/13 02:15:35;;;;;;;6.45;4.43;;;17.00;44.40;;;;;;5075797;28;20032;-70
2023/06/13 02:18:02;;;;;;;5.05;4.13;;;16.90;44.80;;;;;;5075579;28;20033;-70
2023/06/13 02:20:28;;;;;;;6.78;4.35;;;16.70;44.90;;;;;;5074398;28;20028;-70
2023/06/13 02:22:53;;;;;;;6.22;4.38;;;16.70;45.00;;;;;;5075667;28;20020;-70
2023/06/13 02:25:20;;;;;;;5.10;4.60;;;16.80;45.10;;;;;;5075380;28;20432;-70
2023/06/13 02:27:45;;;;;;;6.00;4.07;;;16.70;45.20;;;;;;5074128;28;20493;-70
2023/06/13 02:30:11;;;;;;;10.68;4.28;;;16.70;45.30;;;;;;5075709;28;20115;-70
2023/06/13 02:32:39;;;;;;;5.95;4.45;;;16.60;45.30;;;;;;5075656;28;20477;-70
2023/06/13 02:35:09;;;;;;;6.88;3.72;;;16.60;45.30;;;;;;5075611;28;20031;-70
2023/06/13 02:37:35;;;;;;;8.27;4.03;;;16.60;45.20;;;;;;5075219;28;20035;-71
2023/06/13 02:40:01;;;;;;;4.43;3.53;;;16.60;45.10;;;;;;5075320;28;20041;-70
2023/06/13 02:42:29;;;;;;;5.72;4.05;;;16.70;45.20;;;;;;5075137;28;20380;-70
2023/06/13 02:44:55;;;;;;;4.30;3.88;;;16.70;45.40;;;;;;5075384;28;20025;-71
2023/06/13 02:47:21;;;;;;;7.05;4.15;;;16.70;45.50;;;;;;5075151;28;20358;-70
2023/06/13 02:49:46;;;;;;;3.97;3.35;;;16.80;45.50;;;;;;5075174;28;20024;-70
2023/06/13 02:52:12;;;;;;;4.38;3.78;;;16.80;45.40;;;;;;5075179;28;20070;-70
2023/06/13 02:54:37;;;;;;;5.45;3.60;;;16.80;45.40;;;;;;5073577;28;20016;-71
2023/06/13 02:57:03;;;;;;;4.35;3.58;;;16.80;45.30;;;;;;5075173;28;20376;-85
2023/06/13 02:59:29;;;;;;;4.35;3.95;;;16.80;45.50;;;;;;5075541;28;20028;-85
2023/06/13 03:01:54;;;;;;;4.70;3.97;;;16.70;45.70;;;;;;5075161;28;20024;-81
2023/06/13 03:04:20;;;;;;;6.03;3.88;;;16.70;45.80;;;;;;5075024;28;20016;-82
2023/06/13 03:06:46;;;;;;;4.70;3.78;;;16.70;46.00;;;;;;5074937;28;20384;-83
2023/06/13 03:09:12;;;;;;;5.43;3.83;;;16.70;46.30;;;;;;5073776;28;20040;-82
2023/06/13 03:11:37;;;;;;;5.85;3.47;;;16.70;46.20;;;;;;5073578;28;20101;-79
2023/06/13 03:14:03;;;;;;;4.85;4.10;;;16.60;46.30;;;;;;5074758;28;20021;-72
2023/06/13 03:16:28;;;;;;;5.60;3.53;;;16.60;46.50;;;;;;5074563;28;20470;-71
2023/06/13 03:18:54;;;;;;;5.22;3.97;;;16.50;46.80;;;;;;5074625;28;20028;-71
2023/06/13 03:21:20;;;;;;;4.60;3.63;;;16.40;46.90;;;;;;5074739;28;20021;-71
2023/06/13 03:23:46;;;;;;;9.63;4.28;;;16.30;47.50;;;;;;5074347;28;20032;-71
2023/06/13 03:26:12;;;;;;;5.28;4.45;;;16.20;48.00;;;;;;5074415;28;20032;-71
2023/06/13 03:28:37;;;;;;;5.97;4.20;;;16.20;48.40;;;;;;5074376;28;20117;-71
2023/06/13 03:31:04;;;;;;;4.43;4.03;;;16.10;48.80;;;;;;5074703;28;20025;-84
2023/06/13 03:33:29;;;;;;;4.97;3.97;;;16.00;49.10;;;;;;5074741;28;20020;-84
2023/06/13 03:35:55;;;;;;;4.95;4.05;;;15.90;49.30;;;;;;5074765;28;20496;-84
2023/06/13 03:38:21;;;;;;;4.97;4.07;;;15.90;49.60;;;;;;5074423;28;20401;-85
2023/06/13 03:40:47;;;;;;;5.95;3.90;;;15.90;49.60;;;;;;5072651;28;20035;-85
2023/06/13 03:43:12;;;;;;;4.30;3.90;;;15.80;49.80;;;;;;5074347;28;20098;-84
2023/06/13 03:45:38;;;;;;;5.95;4.32;;;15.80;49.90;;;;;;5074153;28;20035;-79
2023/06/13 03:48:04;;;;;;;7.57;4.32;;;15.70;50.00;;;;;;5074448;28;20028;-85
2023/06/13 03:50:29;;;;;;;5.47;4.18;;;15.60;50.20;;;;;;5074089;28;20492;-86
2023/06/13 03:52:55;;;;;;;5.00;4.50;;;15.60;50.50;;;;;;5074159;28;20032;-81
2023/06/13 03:55:23;;;;;;;7.95;4.65;;;15.60;50.70;;;;;;5074094;28;20052;-71
2023/06/13 03:57:50;;;;;;;5.45;4.25;;;15.50;50.90;;;;;;5072702;28;20028;-75
2023/06/13 04:00:16;;;;;;;6.53;4.32;;;15.50;51.40;;;;;;5072338;28;20025;-71
2023/06/13 04:02:41;;;;;;;6.75;4.03;;;15.50;51.50;;;;;;5072455;28;20502;-71
2023/06/13 04:05:07;;;;;;;7.30;3.85;;;15.50;51.20;;;;;;5072163;28;20031;-84
2023/06/13 04:07:37;;;;;;;10.43;4.13;;;15.50;51.20;;;;;;5072159;28;20527;-71
2023/06/13 04:10:03;;;;;;;5.68;4.40;;;15.60;51.10;;;;;;5072213;28;20024;-71
2023/06/13 04:12:30;;;;;;;4.25;3.70;;;15.70;51.00;;;;;;5071978;28;20032;-72
2023/06/13 04:14:56;;;;;;;4.90;4.32;;;15.70;50.90;;;;;;5072015;28;20025;-71
2023/06/13 04:17:21;;;;;;;5.03;4.03;;;15.80;50.70;;;;;;5072010;28;20028;-71
2023/06/13 04:19:50;;;;;;;5.53;4.07;;;15.80;50.60;;;;;;5072002;28;20118;-71
2023/06/13 04:22:16;;;;;;;5.35;4.32;;;15.80;50.40;;;;;;5073266;28;20027;-71
2023/06/13 04:24:43;;;;;;;6.00;4.07;;;15.90;50.30;;;;;;5071992;28;20028;-71
2023/06/13 04:27:13;;;;;;;9.13;4.40;;;16.00;50.20;;;;;;5072157;28;20070;-79
2023/06/13 04:29:40;;;;;;;5.35;4.05;;;16.00;49.90;;;;;;5073167;28;20012;-72
2023/06/13 04:32:07;;;;;;;5.57;4.35;;;16.10;49.80;;;;;;5072953;28;20036;-73
2023/06/13 04:34:36;;;;;;;5.40;4.18;;;16.10;49.90;;;;;;5071622;28;20473;-72
2023/06/13 04:37:03;;;;;;;6.82;3.88;;;16.20;49.90;;;;;;5071754;28;20090;-72
2023/06/13 04:39:29;;;;;;;5.97;4.47;;;16.20;49.50;;;;;;5071529;28;20083;-72
2023/06/13 04:41:55;;;;;;;4.47;4.07;;;16.40;49.40;;;;;;5071654;28;20454;-72
2023/06/13 04:44:28;;;;;;;6.10;4.68;;;16.40;49.20;;;;;;5071652;28;20457;-71
2023/06/13 04:47:01;;;;;;;5.22;4.10;;;16.40;49.30;;;;;;5071314;28;20035;-73
2023/06/13 04:49:27;;;;;;;7.78;4.50;;;16.40;49.00;;;;;;5072740;28;20024;-76
2023/06/13 04:51:53;;;;;;;4.63;4.18;;;16.50;49.10;;;;;;5070934;28;20476;-72
2023/06/13 04:54:19;;;;;;;4.70;3.80;;;16.60;48.50;;;;;;5071668;28;20052;-72
2023/06/13 04:56:45;;;;;;;6.05;3.75;;;16.70;48.40;;;;;;5071748;28;20055;-72
2023/06/13 04:59:11;;;;;;;7.50;3.80;;;16.80;48.00;;;;;;5072906;28;20021;-72
2023/06/13 05:01:37;;;;;;;5.28;3.10;;;16.80;47.80;;;;;;5071133;28;20021;-72
2023/06/13 05:04:03;;;;;;;6.28;3.65;;;16.90;47.30;;;;;;5072127;28;20416;-72
2023/06/13 05:06:29;;;;;;;5.22;3.30;;;17.00;46.50;;;;;;5076722;28;20044;-71
2023/06/13 05:08:56;;;;;;;3.75;3.17;;;17.20;46.80;;;;;;5072272;28;20021;-71
2023/06/13 05:11:21;;;;;;;6.55;3.70;;;17.20;45.80;;;;;;5074465;28;20109;-71
2023/06/13 05:13:47;;;;;;;4.85;3.13;;;17.30;44.70;;;;;;5073511;28;20050;-72
2023/06/13 05:16:13;;;;;;;5.20;3.17;;;17.40;44.40;;;;;;5072826;28;20035;-72
2023/06/13 05:18:40;;;;;;;7.03;2.88;;;17.50;44.00;;;;;;5071488;28;20027;-72
2023/06/13 05:21:06;;;;;;;3.05;2.75;;;17.60;44.50;;;;;;5071525;28;20029;-72
2023/06/13 05:23:32;;;;;;;4.95;3.20;;;17.70;43.70;;;;;;5071954;28;20093;-72
2023/06/13 05:25:58;;;;;;;6.47;3.42;;;17.80;43.30;;;;;;5071194;28;20017;-80
2023/06/13 05:28:23;;;;;;;5.57;3.40;;;17.90;43.40;;;;;;5070549;28;20480;-72
2023/06/13 05:30:51;;;;;;;6.13;3.35;;;18.00;42.90;;;;;;5070007;28;20048;-73
2023/06/13 05:33:17;;;;;;;5.20;3.30;;;18.00;41.40;;;;;;5070870;28;20063;-72
2023/06/13 05:35:42;;;;;;;6.78;3.28;;;18.00;40.90;;;;;;5070994;28;20048;-72
2023/06/13 05:38:09;;;;;;;5.35;3.83;;;18.10;40.90;;;;;;5070777;28;20025;-74
2023/06/13 05:40:38;;;;;;;5.88;3.72;;;18.10;40.40;;;;;;5071961;28;20027;-74
2023/06/13 05:43:04;;;;;;;3.30;2.72;;;18.30;39.90;;;;;;5070804;28;20035;-72
2023/06/13 05:45:29;;;;;;;4.32;2.90;;;18.40;39.50;;;;;;5071263;28;20389;-72
2023/06/13 05:47:55;;;;;;;3.60;3.00;;;18.50;39.50;;;;;;5071136;28;20032;-72
2023/06/13 05:50:21;;;;;;;4.65;3.00;;;18.50;39.20;;;;;;5070901;28;20440;-78
2023/06/13 05:52:46;;;;;;;5.85;3.17;;;18.50;39.30;;;;;;5070656;28;20047;-72
2023/06/13 05:55:12;;;;;;;5.55;3.17;;;18.60;39.00;;;;;;5070364;28;20111;-73
2023/06/13 05:57:43;;;;;;;2.55;2.35;;;18.60;38.30;;;;;;5071151;28;20040;-81
2023/06/13 06:00:14;;;;;;;10.13;2.70;;;18.60;38.00;;;;;;5071071;28;20466;-74
2023/06/13 06:02:46;;;;;;;3.22;2.67;;;18.60;37.40;;;;;;5072848;28;20094;-74
2023/06/13 06:05:13;;;;;;;4.28;2.72;;;18.70;37.30;;;;;;5074172;28;20032;-71
2023/06/13 06:07:40;;;;;;;4.50;2.80;;;18.80;37.10;;;;;;5075762;28;20056;-72
2023/06/13 06:10:07;;;;;;;4.38;2.67;;;18.80;37.20;;;;;;5074013;28;20109;-73
2023/06/13 06:12:33;;;;;;;16.65;3.65;;;18.90;37.20;;;;;;5074029;28;20029;-72
2023/06/13 06:15:00;;;;;;;5.32;3.22;;;19.00;36.90;;;;;;5074606;28;20082;-72
2023/06/13 06:17:25;;;;;;;3.05;2.55;;;19.00;36.40;;;;;;5075652;28;20054;-72
2023/06/13 06:19:51;;;;;;;5.75;2.92;;;19.00;36.50;;;;;;5074489;28;20027;-71
2023/06/13 06:22:17;;;;;;;3.95;2.55;;;19.10;36.30;;;;;;5074182;28;20116;-69
2023/06/13 06:24:43;;;;;;;4.72;2.60;;;19.10;36.40;;;;;;5075523;28;20096;-70
2023/06/13 06:27:11;;;;;;;4.32;3.15;;;19.10;36.20;;;;;;5075327;28;20044;-69
2023/06/13 06:29:37;;;;;;;5.75;2.97;;;19.20;36.00;;;;;;5074383;28;20034;-70
2023/06/13 06:32:04;;;;;;;6.38;3.10;;;19.20;35.80;;;;;;5074306;28;20032;-71
2023/06/13 06:34:30;;;;;;;6.88;3.72;;;19.30;35.30;;;;;;5074195;28;20054;-70
2023/06/13 06:36:55;;;;;;;10.80;2.88;;;19.30;38.60;;;;;;5074111;28;20116;-69
2023/06/13 06:39:22;;;;;;;6.32;2.67;;;19.50;41.30;;;;;;5074035;28;20044;-69
2023/06/13 06:41:48;;;;;;;5.18;2.70;;;19.90;39.00;;;;;;5073955;28;20037;-69
2023/06/13 06:44:13;;;;;;;3.80;2.83;;;20.30;35.00;;;;;;5074088;28;20134;-70
2023/06/13 06:46:39;;;;;;;6.90;2.80;;;20.50;33.40;;;;;;5075156;28;20028;-70
2023/06/13 06:49:04;;;;;;;7.60;3.40;;;20.60;33.00;;;;;;5074011;28;20024;-70
2023/06/13 06:51:30;;;;;;;18.20;4.43;;;20.70;32.90;;;;;;5077604;28;20033;-70
2023/06/13 06:53:56;;;;;;;15.48;5.50;;;20.90;33.20;;;;;;5085735;28;20024;-69
2023/06/13 06:56:22;;;;;;;13.98;4.53;;;20.90;32.90;;;;;;5084164;28;20017;-69
2023/06/13 06:58:47;;;;;;;10.60;3.30;;;21.00;32.80;;;;;;5084316;28;20073;-73
2023/06/13 07:01:16;;;;;;;5.95;2.85;;;21.10;31.40;;;;;;5074780;28;20473;-73
2023/06/13 07:03:41;;;;;;;4.50;2.67;;;21.00;30.10;;;;;;5074820;28;20072;-76
2023/06/13 07:06:07;;;;;;;4.53;2.97;;;20.90;30.10;;;;;;5073396;28;20490;-72
2023/06/13 07:08:33;;;;;;;6.93;3.00;;;20.80;30.90;;;;;;5073127;28;20511;-72
2023/06/13 07:10:59;;;;;;;5.95;2.67;;;20.80;30.90;;;;;;5074284;28;20107;-73
2023/06/13 07:13:26;;;;;;;5.47;2.80;;;20.70;31.10;;;;;;5074025;28;20416;-72
2023/06/13 07:15:51;;;;;;;9.68;3.28;;;20.60;30.40;;;;;;5074204;28;20028;-72
2023/06/13 07:18:17;;;;;;;5.05;3.13;;;20.60;30.90;;;;;;5074276;28;20029;-72
2023/06/13 07:20:44;;;;;;;7.10;2.40;;;20.60;31.10;;;;;;5074712;28;20025;-73
2023/06/13 07:23:10;;;;;;;2.80;2.28;;;20.60;31.10;;;;;;5074426;28;20538;-75
2023/06/13 07:25:35;;;;;;;5.55;2.60;;;20.60;30.60;;;;;;5074255;28;20028;-72
2023/06/13 07:28:01;;;;;;;3.88;2.60;;;20.60;31.30;;;;;;5074225;28;20097;-75
2023/06/13 07:30:26;;;;;;;9.23;2.90;;;20.70;30.70;;;;;;5074165;28;20028;-72
2023/06/13 07:32:52;;;;;;;5.15;3.08;;;20.70;31.00;;;;;;5072957;28;20025;-73
2023/06/13 07:35:23;;;;;;;5.70;3.10;;;20.80;31.00;;;;;;5072818;28;20500;-71
2023/06/13 07:37:55;;;;;;;4.80;2.63;;;20.80;30.40;;;;;;5074167;28;20020;-71
2023/06/13 07:40:21;;;;;;;3.08;2.42;;;20.80;30.30;;;;;;5073869;28;20048;-73
2023/06/13 07:42:48;;;;;;;5.05;2.90;;;20.80;30.00;;;;;;5073928;28;20097;-74
2023/06/13 07:45:14;;;;;;;5.18;2.70;;;20.90;29.60;;;;;;5073873;28;20109;-72
2023/06/13 07:47:40;;;;;;;7.50;3.03;;;21.00;30.10;;;;;;5073956;28;20079;-72
2023/06/13 07:50:06;;;;;;;5.15;2.90;;;21.00;30.00;;;;;;5073817;28;20032;-72
2023/06/13 07:52:32;;;;;;;11.85;3.08;;;21.00;30.20;;;;;;5073784;28;20059;-74
2023/06/13 07:54:57;;;;;;;4.10;3.13;;;21.00;30.20;;;;;;5073646;28;20054;-72
2023/06/13 07:57:23;;;;;;;7.25;3.22;;;21.00;29.60;;;;;;5073366;28;20024;-73
2023/06/13 07:59:48;;;;;;;4.10;2.72;;;21.10;29.50;;;;;;5073612;28;20025;-74
2023/06/13 08:02:14;;;;;;;8.82;2.85;;;21.20;29.20;;;;;;5073753;28;20032;-73
2023/06/13 08:04:40;;;;;;;5.20;3.00;;;21.30;29.40;;;;;;5073652;28;20381;-72
2023/06/13 08:07:05;;;;;;;5.70;2.67;;;21.40;26.90;;;;;;5073453;28;20040;-74
2023/06/13 08:09:31;;;;;;;7.50;3.05;;;21.40;26.90;;;;;;5073805;28;20024;-78
2023/06/13 08:11:59;;;;;;;7.90;2.92;;;21.40;26.70;;;;;;5073533;28;20020;-82
2023/06/13 08:14:25;;;;;;;3.15;2.72;;;21.50;26.80;;;;;;5073469;28;20033;-75
2023/06/13 08:16:50;;;;;;;10.02;3.40;;;21.50;26.70;;;;;;5073554;28;20024;-76
2023/06/13 08:19:16;;;;;;;7.55;2.83;;;21.70;26.90;;;;;;5073515;28;20028;-73
2023/06/13 08:21:41;;;;;;;3.80;2.90;;;21.70;26.60;;;;;;5073126;28;20028;-77
2023/06/13 08:24:07;;;;;;;4.22;2.75;;;21.80;26.50;;;;;;5073249;28;20037;-73
2023/06/13 08:26:33;;;;;;;6.18;3.08;;;21.90;26.30;;;;;;5073154;28;20058;-79
2023/06/13 08:29:02;;;;;;;4.78;2.88;;;22.00;26.10;;;;;;5073266;28;20025;-74
2023/06/13 08:31:31;;;;;;;4.28;2.80;;;22.00;25.70;;;;;;5071694;28;20024;-77
2023/06/13 08:33:58;;;;;;;5.95;3.05;;;22.10;24.10;;;;;;5072979;28;20361;-78
2023/06/13 08:36:24;;;;;;;9.15;3.08;;;22.20;24.40;;;;;;5073070;28;20017;-79
2023/06/13 08:38:50;;;;;;;10.25;3.30;;;22.20;24.00;;;;;;5073255;28;20051;-79
2023/06/13 08:41:15;;;;;;;6.85;2.92;;;22.30;24.40;;;;;;5073251;28;20090;-72
2023/06/13 08:43:44;;;;;;;7.88;3.00;;;22.30;24.40;;;;;;5073118;28;20029;-74
2023/06/13 08:46:11;;;;;;;4.68;3.15;;;22.20;24.10;;;;;;5072775;28;20035;-72
2023/06/13 08:48:37;;;;;;;12.38;3.35;;;22.20;23.70;;;;;;5072801;28;20020;-72
2023/06/13 08:51:04;;;;;;;5.38;3.10;;;22.20;23.80;;;;;;5072754;28;20086;-72
2023/06/13 08:53:32;;;;;;;5.03;3.10;;;22.20;23.80;;;;;;5072541;28;20436;-72
2023/06/13 08:56:04;;;;;;;6.10;3.25;;;22.30;24.00;;;;;;5072780;28;20020;-76
2023/06/13 08:58:36;;;;;;;4.78;2.67;;;22.40;23.60;;;;;;5072845;28;20021;-71
2023/06/13 09:01:02;;;;;;;6.88;3.28;;;22.60;23.60;;;;;;5072484;28;20017;-73
2023/06/13 09:03:29;;;;;;;6.18;3.42;;;22.60;21.40;;;;;;5072324;28;20023;-73
2023/06/13 09:05:56;;;;;;;8.85;3.40;;;22.60;22.60;;;;;;5072133;28;20116;-72
2023/06/13 09:08:24;;;;;;;5.88;3.60;;;22.70;22.60;;;;;;5071098;28;20117;-73
2023/06/13 09:10:51;;;;;;;5.05;3.50;;;22.70;19.50;;;;;;5071171;28;20025;-73
2023/06/13 09:13:17;;;;;;;8.07;3.45;;;22.80;19.40;;;;;;5070665;28;20477;-72
2023/06/13 09:15:44;;;;;;;6.47;3.60;;;22.80;18.30;;;;;;5070881;28;20028;-73
2023/06/13 09:18:14;;;;;;;7.00;3.58;;;22.80;18.70;;;;;;5071170;28;20025;-71
2023/06/13 09:20:40;;;;;;;5.22;3.30;;;22.80;19.00;;;;;;5072371;28;20021;-71
2023/06/13 09:23:07;;;;;;;6.10;3.60;;;22.90;19.20;;;;;;5071271;28;20205;-72
2023/06/13 09:25:35;;;;;;;12.32;3.25;;;22.90;19.30;;;;;;5071215;28;20388;-72
2023/06/13 09:28:27;;;;;;;8.25;3.30;;;23.00;19.40;;;;;;5070867;28;20033;-73
2023/06/13 09:30:52;;;;;;;9.77;3.67;;;23.00;18.80;;;;;;5071201;28;20032;-72
2023/06/13 09:33:21;;;;;;;4.70;3.20;;;23.10;18.50;;;;;;5071089;28;20032;-72
2023/06/13 09:35:47;;;;;;;4.15;3.10;;;23.10;18.00;;;;;;5072253;28;20028;-71
2023/06/13 09:38:13;;;;;;;13.93;3.20;;;23.10;18.30;;;;;;5073463;28;20055;-71
2023/06/13 09:40:39;;;;;;;5.18;3.30;;;23.20;18.90;;;;;;5074793;28;20028;-73
2023/06/13 09:43:04;;;;;;;11.20;3.60;;;23.30;17.40;;;;;;5075114;28;20040;-72
2023/06/13 09:45:30;;;;;;;8.40;3.25;;;23.30;17.20;;;;;;5074934;28;20496;-72
2023/06/13 09:47:57;;;;;;;9.43;3.33;;;23.30;17.30;;;;;;5074815;28;20127;-72
2023/06/13 09:50:22;;;;;;;13.55;3.65;;;23.20;16.60;;;;;;5075108;28;20101;-72
2023/06/13 09:52:48;;;;;;;8.25;3.63;;;23.30;17.90;;;;;;5074861;28;20525;-72
2023/06/13 09:55:13;;;;;;;7.53;3.28;;;23.40;17.10;;;;;;5074515;28;20029;-72
2023/06/13 09:57:40;;;;;;;13.50;4.10;;;23.50;16.80;;;;;;5075826;28;20020;-72
2023/06/13 10:00:08;;;;;;;8.63;3.67;;;23.60;17.20;;;;;;5074202;28;20109;-73
2023/06/13 10:02:34;;;;;;;10.82;3.55;;;23.70;17.00;;;;;;5074573;28;20028;-72
2023/06/13 10:05:01;;;;;;;13.05;4.03;;;23.80;16.60;;;;;;5075624;28;20381;-73
2023/06/13 10:07:26;;;;;;;16.83;4.20;;;23.70;15.00;;;;;;5075297;28;20491;-72
2023/06/13 10:09:52;;;;;;;16.33;3.92;;;23.90;16.00;;;;;;5075517;28;20048;-72
2023/06/13 10:12:21;;;;;;;3.45;2.80;;;24.10;16.50;;;;;;5075369;28;20027;-72
2023/06/13 10:14:56;;;;;;;15.50;3.65;;;24.20;15.90;;;;;;5075443;28;20029;-71
2023/06/13 10:17:22;;;;;;;10.07;3.40;;;24.40;16.90;;;;;;5075694;28;20419;-72
2023/06/13 10:19:58;;;;;;;6.80;3.42;;;24.60;16.70;;;;;;5074452;28;20035;-71
2023/06/13 10:22:23;;;;;;;;;;;24.70;16.40;;;;;;5075940;28;20029;-71
2023/06/13 10:24:51;;;;;;;5.38;3.25;;;24.60;15.20;;;;;;5074388;28;20317;-72
2023/06/13 10:27:19;;;;;;;6.30;3.20;;;24.50;14.10;;;;;;5075420;28;20036;-71
2023/06/13 10:30:14;;;;;;;8.35;3.25;;;24.60;14.70;;;;;;5074922;28;20062;-71
2023/06/13 10:33:05;;;;;;;4.90;3.28;;;24.70;15.10;;;;;;5075037;28;20025;-71
2023/06/13 10:36:02;;;;;;;10.32;3.72;;;24.80;14.80;;;;;;5074911;28;20024;-71
2023/06/13 10:38:59;;;;;;;6.93;3.30;;;25.00;14.60;;;;;;5075095;28;20131;-71
2023/06/13 10:41:40;;;;;;;13.05;3.90;;;25.00;13.90;;;;;;5074866;28;20016;-71
2023/06/13 10:44:10;;;;;;;5.80;3.00;;;25.20;14.30;;;;;;5077842;28;20165;-73
2023/06/13 10:46:37;;;;;;;7.03;2.85;;;25.30;13.60;;;;;;5075095;28;20032;-72
2023/06/13 10:49:02;;;;;;;6.97;3.28;;;25.40;13.60;;;;;;5073554;28;20136;-72
2023/06/13 10:51:31;;;;;;;10.77;3.67;;;25.50;12.40;;;;;;5073246;28;20032;-74
2023/06/13 10:54:17;;;;;;;9.02;3.15;;;25.40;11.00;;;;;;5074533;28;20026;-73
2023/06/13 10:56:44;;;;;;;7.38;3.13;;;25.50;11.20;;;;;;5074505;28;20031;-71
2023/06/13 10:59:14;;;;;;;4.55;2.72;;;25.60;11.60;;;;;;5073927;28;20441;-72
2023/06/13 11:01:41;;;;;;;4.30;3.20;;;25.70;11.60;;;;;;5074171;28;20024;-82
2023/06/13 11:04:10;;;;;;;9.70;3.65;;;25.90;12.10;;;;;;5074534;28;20036;-72
2023/06/13 11:06:37;;;;;;;5.72;3.28;;;26.10;13.20;;;;;;5073673;28;20024;-71
2023/06/13 11:09:21;;;;;;;4.47;3.30;;;26.30;11.90;;;;;;5074176;28;20032;-71
2023/06/13 11:11:52;;;;;;;3.97;2.80;;;26.50;12.70;;;;;;5074089;28;20075;-71
2023/06/13 11:14:32;;;;;;;8.20;3.30;;;26.60;12.20;;;;;;5073991;28;20025;-73
2023/06/13 11:16:58;;;;;;;8.60;3.60;;;26.70;12.20;;;;;;5074105;28;20462;-73
2023/06/13 11:19:26;;;;;;;6.10;2.75;;;26.70;12.20;;;;;;5073986;28;20024;-73
2023/06/13 11:22:10;;;;;;;4.72;3.03;;;26.80;12.30;;;;;;5073817;28;20038;-72
2023/06/13 11:24:36;;;;;;;4.95;2.83;;;27.00;12.50;;;;;;5073723;28;20421;-73
2023/06/13 11:27:07;;;;;;;4.57;3.03;;;26.90;11.40;;;;;;5073442;28;20066;-72
2023/06/13 11:29:33;;;;;;;7.20;2.92;;;27.10;11.90;;;;;;5073287;28;20025;-73
2023/06/13 11:32:01;;;;;;;6.22;3.20;;;27.10;12.30;;;;;;5073494;28;20040;-72
2023/06/13 11:34:32;;;;;;;3.05;2.72;;;27.10;12.20;;;;;;5073173;28;20024;-73
2023/06/13 11:37:05;;;;;;;8.73;3.50;;;27.20;12.40;;;;;;5073662;28;20020;-72
2023/06/13 11:39:37;;;;;;;4.75;3.05;;;27.30;11.70;;;;;;5073319;28;20520;-72
2023/06/13 11:42:03;;;;;;;7.13;3.25;;;27.40;10.40;;;;;;5073757;28;20036;-72
2023/06/13 11:44:28;;;;;;;7.53;4.28;;;27.50;10.20;;;;;;5073241;28;20029;-73
2023/06/13 11:46:54;;;;;;;5.00;2.95;;;27.50;10.20;;;;;;5073497;28;20449;-72
2023/06/13 11:49:20;;;;;;;7.38;3.55;;;27.60;7.90;;;;;;5073548;28;20434;-72
2023/06/13 11:51:46;;;;;;;4.57;3.33;;;27.20;7.60;;;;;;5073383;28;20079;-72
2023/06/13 11:54:11;;;;;;;8.20;3.40;;;27.30;10.60;;;;;;5073277;28;20024;-72
2023/06/13 11:56:49;;;;;;;10.88;3.53;;;27.40;10.90;;;;;;5073512;28;20052;-72
2023/06/13 11:59:19;;;;;;;5.32;3.47;;;27.60;11.00;;;;;;5073441;28;20016;-71
2023/06/13 12:01:52;;;;;;;6.45;3.33;;;27.60;10.00;;;;;;5073094;28;20021;-72
2023/06/13 12:04:25;;;;;;;9.07;3.28;;;27.60;8.80;;;;;;5073861;28;20028;-75
2023/06/13 12:06:53;;;;;;;13.52;4.55;;;27.60;8.80;;;;;;5073579;28;20432;-73
2023/06/13 12:09:19;;;;;;;8.48;2.90;;;27.70;7.90;;;;;;5073347;28;20029;-74
2023/06/13 12:11:45;;;;;;;8.05;3.08;;;27.80;8.10;;;;;;5073416;28;20104;-73
2023/06/13 12:14:11;;;;;;;7.45;3.20;;;27.90;8.50;;;;;;5073355;28;20064;-74
2023/06/13 12:16:38;;;;;;;12.07;3.80;;;27.90;8.10;;;;;;5073647;28;20377;-72
2023/06/13 12:19:06;;;;;;;5.75;3.35;;;28.00;8.80;;;;;;5073204;28;20074;-72
2023/06/13 12:21:36;;;;;;;9.27;3.35;;;28.00;9.40;;;;;;5073620;28;20384;-72
2023/06/13 12:24:07;;;;;;;5.10;3.10;;;27.80;9.10;;;;;;5073281;28;20078;-74
2023/06/13 12:26:35;;;;;;;6.22;3.25;;;28.00;10.20;;;;;;5072015;28;20044;-82
2023/06/13 12:29:06;;;;;;;8.52;3.35;;;28.20;9.80;;;;;;5072077;28;20025;-85
2023/06/13 12:31:36;;;;;;;8.18;3.17;;;28.30;10.10;;;;;;5072250;28;20037;-84
2023/06/13 12:34:10;;;;;;;8.95;3.10;;;28.30;9.40;;;;;;5073454;28;20020;-81
2023/06/13 12:36:44;;;;;;;4.95;3.40;;;28.40;8.40;;;;;;5057086;28;20127;-83
2023/06/13 12:39:14;;;;;;;8.15;3.50;;;28.50;8.90;;;;;;5072805;28;20053;-78
2023/06/13 12:42:05;;;;;;;3.33;2.90;;;28.80;9.30;;;;;;5072804;28;20334;-82
2023/06/13 12:44:33;;;;;;;8.23;3.33;;;28.90;8.40;;;;;;5064386;28;20366;-83
2023/06/13 12:47:02;;;;;;;7.45;3.22;;;28.80;8.20;;;;;;5073136;28;20040;-82
2023/06/13 12:49:38;;;;;;;13.82;3.90;;;28.80;9.00;;;;;;5073395;28;20089;-83